sensor_id;sensor_type;location;lat;lon;timestamp;P1;durP1;ratioP1;P2;durP2;ratioP2
11539;SDS011;5826;54.756;9.192;2024-02-26T00:01:25;1.70;;;1.60;;
11539;SDS011;5826;54.756;9.192;2024-02-26T00:03:51;1.77;;;1.67;;
11539;SDS011;5826;54.756;9.192;2024-02-26T00:06:17;2.00;;;1.80;;
11539;SDS011;5826;54.756;9.192;2024-02-26T00:08:43;3.20;;;2.90;;
11539;SDS011;5826;54.756;9.192;2024-02-26T00:11:09;2.77;;;2.27;;
11539;SDS011;5826;54.756;9.192;2024-02-26T00:13:35;3.30;;;3.00;;
11539;SDS011;5826;54.756;9.192;2024-02-26T00:16:01;2.30;;;2.10;;
11539;SDS011;5826;54.756;9.192;2024-02-26T00:18:27;2.03;;;1.83;;
11539;SDS011;5826;54.756;9.192;2024-02-26T00:20:52;1.80;;;1.70;;
11539;SDS011;5826;54.756;9.192;2024-02-26T00:23:18;3.33;;;3.03;;
11539;SDS011;5826;54.756;9.192;2024-02-26T00:25:43;1.87;;;1.77;;
11539;SDS011;5826;54.756;9.192;2024-02-26T00:28:10;2.43;;;2.23;;
11539;SDS011;5826;54.756;9.192;2024-02-26T00:30:35;1.87;;;1.77;;
11539;SDS011;5826;54.756;9.192;2024-02-26T00:33:01;2.30;;;2.17;;
11539;SDS011;5826;54.756;9.192;2024-02-26T00:35:26;2.10;;;2.00;;
11539;SDS011;5826;54.756;9.192;2024-02-26T00:37:52;2.00;;;1.90;;
11539;SDS011;5826;54.756;9.192;2024-02-26T00:40:18;2.80;;;2.60;;
11539;SDS011;5826;54.756;9.192;2024-02-26T00:42:43;2.20;;;2.00;;
11539;SDS011;5826;54.756;9.192;2024-02-26T00:45:10;3.10;;;2.47;;
11539;SDS011;5826;54.756;9.192;2024-02-26T00:47:39;8.10;;;3.33;;
11539;SDS011;5826;54.756;9.192;2024-02-26T00:50:10;12.33;;;3.70;;
11539;SDS011;5826;54.756;9.192;2024-02-26T00:52:35;6.07;;;3.23;;
11539;SDS011;5826;54.756;9.192;2024-02-26T00:55:02;6.83;;;3.50;;
11539;SDS011;5826;54.756;9.192;2024-02-26T00:57:27;4.40;;;4.00;;
11539;SDS011;5826;54.756;9.192;2024-02-26T00:59:53;3.87;;;3.50;;
11539;SDS011;5826;54.756;9.192;2024-02-26T01:02:20;3.93;;;3.53;;
11539;SDS011;5826;54.756;9.192;2024-02-26T01:04:46;4.60;;;3.00;;
11539;SDS011;5826;54.756;9.192;2024-02-26T01:07:12;5.90;;;3.93;;
11539;SDS011;5826;54.756;9.192;2024-02-26T01:09:38;5.50;;;4.90;;
11539;SDS011;5826;54.756;9.192;2024-02-26T01:12:03;9.90;;;5.83;;
11539;SDS011;5826;54.756;9.192;2024-02-26T01:14:29;6.53;;;5.23;;
11539;SDS011;5826;54.756;9.192;2024-02-26T01:16:54;6.07;;;4.57;;
11539;SDS011;5826;54.756;9.192;2024-02-26T01:19:20;5.70;;;4.43;;
11539;SDS011;5826;54.756;9.192;2024-02-26T01:21:46;7.57;;;4.83;;
11539;SDS011;5826;54.756;9.192;2024-02-26T01:24:11;4.50;;;4.10;;
11539;SDS011;5826;54.756;9.192;2024-02-26T01:26:37;4.40;;;4.00;;
11539;SDS011;5826;54.756;9.192;2024-02-26T01:29:03;3.80;;;3.50;;
11539;SDS011;5826;54.756;9.192;2024-02-26T01:31:28;3.97;;;3.57;;
11539;SDS011;5826;54.756;9.192;2024-02-26T01:33:54;4.33;;;3.50;;
11539;SDS011;5826;54.756;9.192;2024-02-26T01:36:19;4.50;;;3.90;;
11539;SDS011;5826;54.756;9.192;2024-02-26T01:38:46;7.80;;;4.20;;
11539;SDS011;5826;54.756;9.192;2024-02-26T01:41:13;3.53;;;3.23;;
11539;SDS011;5826;54.756;9.192;2024-02-26T01:43:39;5.97;;;4.57;;
11539;SDS011;5826;54.756;9.192;2024-02-26T01:46:05;4.80;;;4.30;;
11539;SDS011;5826;54.756;9.192;2024-02-26T01:48:33;4.47;;;4.07;;
11539;SDS011;5826;54.756;9.192;2024-02-26T01:50:58;6.77;;;4.73;;
11539;SDS011;5826;54.756;9.192;2024-02-26T01:53:24;8.53;;;5.13;;
11539;SDS011;5826;54.756;9.192;2024-02-26T01:55:50;7.13;;;5.33;;
11539;SDS011;5826;54.756;9.192;2024-02-26T01:58:15;5.00;;;3.77;;
11539;SDS011;5826;54.756;9.192;2024-02-26T02:00:41;6.10;;;4.30;;
11539;SDS011;5826;54.756;9.192;2024-02-26T02:03:07;4.73;;;4.23;;
11539;SDS011;5826;54.756;9.192;2024-02-26T02:05:33;5.17;;;4.67;;
11539;SDS011;5826;54.756;9.192;2024-02-26T02:08:06;5.03;;;3.70;;
11539;SDS011;5826;54.756;9.192;2024-02-26T02:10:32;4.57;;;4.00;;
11539;SDS011;5826;54.756;9.192;2024-02-26T02:12:58;5.83;;;4.10;;
11539;SDS011;5826;54.756;9.192;2024-02-26T02:15:24;12.30;;;5.17;;
11539;SDS011;5826;54.756;9.192;2024-02-26T02:17:50;4.40;;;4.00;;
11539;SDS011;5826;54.756;9.192;2024-02-26T02:20:16;5.77;;;5.17;;
11539;SDS011;5826;54.756;9.192;2024-02-26T02:22:43;6.27;;;4.93;;
11539;SDS011;5826;54.756;9.192;2024-02-26T02:25:11;4.57;;;4.00;;
11539;SDS011;5826;54.756;9.192;2024-02-26T02:27:37;5.07;;;4.37;;
11539;SDS011;5826;54.756;9.192;2024-02-26T02:30:03;7.00;;;5.20;;
11539;SDS011;5826;54.756;9.192;2024-02-26T02:32:29;5.50;;;4.90;;
11539;SDS011;5826;54.756;9.192;2024-02-26T02:34:56;6.67;;;5.57;;
11539;SDS011;5826;54.756;9.192;2024-02-26T02:37:21;5.00;;;4.50;;
11539;SDS011;5826;54.756;9.192;2024-02-26T02:39:47;6.67;;;5.00;;
11539;SDS011;5826;54.756;9.192;2024-02-26T02:42:12;5.20;;;4.50;;
11539;SDS011;5826;54.756;9.192;2024-02-26T02:44:38;9.60;;;6.60;;
11539;SDS011;5826;54.756;9.192;2024-02-26T02:47:03;5.57;;;4.73;;
11539;SDS011;5826;54.756;9.192;2024-02-26T02:49:29;6.67;;;5.97;;
11539;SDS011;5826;54.756;9.192;2024-02-26T02:51:54;4.67;;;4.17;;
11539;SDS011;5826;54.756;9.192;2024-02-26T02:54:22;7.27;;;5.30;;
11539;SDS011;5826;54.756;9.192;2024-02-26T02:56:48;5.03;;;4.50;;
11539;SDS011;5826;54.756;9.192;2024-02-26T02:59:13;8.27;;;5.87;;
11539;SDS011;5826;54.756;9.192;2024-02-26T03:01:39;5.37;;;4.87;;
11539;SDS011;5826;54.756;9.192;2024-02-26T03:04:04;9.33;;;6.20;;
11539;SDS011;5826;54.756;9.192;2024-02-26T03:06:30;5.83;;;4.63;;
11539;SDS011;5826;54.756;9.192;2024-02-26T03:08:55;9.27;;;5.13;;
11539;SDS011;5826;54.756;9.192;2024-02-26T03:11:21;9.50;;;5.50;;
11539;SDS011;5826;54.756;9.192;2024-02-26T03:13:46;7.07;;;4.83;;
11539;SDS011;5826;54.756;9.192;2024-02-26T03:16:12;5.97;;;5.03;;
11539;SDS011;5826;54.756;9.192;2024-02-26T03:18:40;12.30;;;5.57;;
11539;SDS011;5826;54.756;9.192;2024-02-26T03:21:06;8.53;;;4.60;;
11539;SDS011;5826;54.756;9.192;2024-02-26T03:23:32;9.43;;;5.50;;
11539;SDS011;5826;54.756;9.192;2024-02-26T03:26:01;15.93;;;6.57;;
11539;SDS011;5826;54.756;9.192;2024-02-26T03:28:28;7.53;;;4.93;;
11539;SDS011;5826;54.756;9.192;2024-02-26T03:30:54;15.50;;;5.50;;
11539;SDS011;5826;54.756;9.192;2024-02-26T03:33:19;17.67;;;5.13;;
11539;SDS011;5826;54.756;9.192;2024-02-26T03:35:45;5.10;;;3.97;;
11539;SDS011;5826;54.756;9.192;2024-02-26T03:38:10;11.10;;;6.43;;
11539;SDS011;5826;54.756;9.192;2024-02-26T03:40:36;6.27;;;4.80;;
11539;SDS011;5826;54.756;9.192;2024-02-26T03:43:01;7.27;;;5.30;;
11539;SDS011;5826;54.756;9.192;2024-02-26T03:45:29;7.43;;;6.00;;
11539;SDS011;5826;54.756;9.192;2024-02-26T03:47:54;7.37;;;5.67;;
11539;SDS011;5826;54.756;9.192;2024-02-26T03:50:20;6.07;;;5.13;;
11539;SDS011;5826;54.756;9.192;2024-02-26T03:52:46;9.37;;;7.43;;
11539;SDS011;5826;54.756;9.192;2024-02-26T03:55:11;6.80;;;6.03;;
11539;SDS011;5826;54.756;9.192;2024-02-26T03:57:37;6.43;;;5.50;;
11539;SDS011;5826;54.756;9.192;2024-02-26T04:00:02;6.80;;;5.33;;
11539;SDS011;5826;54.756;9.192;2024-02-26T04:02:28;6.83;;;5.70;;
11539;SDS011;5826;54.756;9.192;2024-02-26T04:04:54;6.90;;;5.60;;
11539;SDS011;5826;54.756;9.192;2024-02-26T04:07:19;4.77;;;4.27;;
11539;SDS011;5826;54.756;9.192;2024-02-26T04:09:44;4.77;;;4.27;;
11539;SDS011;5826;54.756;9.192;2024-02-26T04:12:10;4.80;;;4.30;;
11539;SDS011;5826;54.756;9.192;2024-02-26T04:14:36;5.63;;;4.53;;
11539;SDS011;5826;54.756;9.192;2024-02-26T04:17:02;5.37;;;4.70;;
11539;SDS011;5826;54.756;9.192;2024-02-26T04:19:27;5.20;;;4.63;;
11539;SDS011;5826;54.756;9.192;2024-02-26T04:21:54;4.83;;;4.10;;
11539;SDS011;5826;54.756;9.192;2024-02-26T04:24:19;5.13;;;4.20;;
11539;SDS011;5826;54.756;9.192;2024-02-26T04:26:45;4.80;;;4.30;;
11539;SDS011;5826;54.756;9.192;2024-02-26T04:29:10;8.87;;;6.87;;
11539;SDS011;5826;54.756;9.192;2024-02-26T04:31:37;5.57;;;4.77;;
11539;SDS011;5826;54.756;9.192;2024-02-26T04:34:03;5.67;;;5.00;;
11539;SDS011;5826;54.756;9.192;2024-02-26T04:36:28;6.43;;;5.10;;
11539;SDS011;5826;54.756;9.192;2024-02-26T04:38:54;5.47;;;4.80;;
11539;SDS011;5826;54.756;9.192;2024-02-26T04:41:20;4.77;;;3.90;;
11539;SDS011;5826;54.756;9.192;2024-02-26T04:43:46;4.27;;;3.77;;
11539;SDS011;5826;54.756;9.192;2024-02-26T04:46:11;6.23;;;5.13;;
11539;SDS011;5826;54.756;9.192;2024-02-26T04:48:37;5.40;;;4.50;;
11539;SDS011;5826;54.756;9.192;2024-02-26T04:51:03;5.43;;;4.20;;
11539;SDS011;5826;54.756;9.192;2024-02-26T04:53:29;6.07;;;4.60;;
11539;SDS011;5826;54.756;9.192;2024-02-26T04:55:54;5.77;;;4.43;;
11539;SDS011;5826;54.756;9.192;2024-02-26T04:58:20;5.40;;;4.40;;
11539;SDS011;5826;54.756;9.192;2024-02-26T05:00:45;7.40;;;5.87;;
11539;SDS011;5826;54.756;9.192;2024-02-26T05:03:11;5.90;;;4.67;;
11539;SDS011;5826;54.756;9.192;2024-02-26T05:05:40;5.33;;;4.17;;
11539;SDS011;5826;54.756;9.192;2024-02-26T05:08:07;5.37;;;4.50;;
11539;SDS011;5826;54.756;9.192;2024-02-26T05:10:33;5.47;;;4.80;;
11539;SDS011;5826;54.756;9.192;2024-02-26T05:12:59;5.40;;;4.53;;
11539;SDS011;5826;54.756;9.192;2024-02-26T05:15:25;7.60;;;5.63;;
11539;SDS011;5826;54.756;9.192;2024-02-26T05:17:50;6.33;;;4.97;;
11539;SDS011;5826;54.756;9.192;2024-02-26T05:20:16;5.23;;;4.17;;
11539;SDS011;5826;54.756;9.192;2024-02-26T05:22:41;6.00;;;4.80;;
11539;SDS011;5826;54.756;9.192;2024-02-26T05:25:07;7.03;;;5.53;;
11539;SDS011;5826;54.756;9.192;2024-02-26T05:27:33;5.03;;;4.17;;
11539;SDS011;5826;54.756;9.192;2024-02-26T05:29:58;6.57;;;5.43;;
11539;SDS011;5826;54.756;9.192;2024-02-26T05:32:24;6.10;;;4.80;;
11539;SDS011;5826;54.756;9.192;2024-02-26T05:34:49;5.83;;;4.70;;
11539;SDS011;5826;54.756;9.192;2024-02-26T05:37:15;5.73;;;4.47;;
11539;SDS011;5826;54.756;9.192;2024-02-26T05:39:40;5.10;;;3.70;;
11539;SDS011;5826;54.756;9.192;2024-02-26T05:42:06;9.13;;;6.73;;
11539;SDS011;5826;54.756;9.192;2024-02-26T05:44:31;8.13;;;6.50;;
11539;SDS011;5826;54.756;9.192;2024-02-26T05:46:56;5.67;;;4.37;;
11539;SDS011;5826;54.756;9.192;2024-02-26T05:49:22;6.33;;;4.90;;
11539;SDS011;5826;54.756;9.192;2024-02-26T05:51:48;7.03;;;5.13;;
11539;SDS011;5826;54.756;9.192;2024-02-26T05:54:13;6.27;;;5.20;;
11539;SDS011;5826;54.756;9.192;2024-02-26T05:56:39;5.93;;;4.73;;
11539;SDS011;5826;54.756;9.192;2024-02-26T05:59:05;5.87;;;4.43;;
11539;SDS011;5826;54.756;9.192;2024-02-26T06:01:30;6.40;;;5.00;;
11539;SDS011;5826;54.756;9.192;2024-02-26T06:03:56;6.73;;;5.13;;
11539;SDS011;5826;54.756;9.192;2024-02-26T06:06:22;7.33;;;5.00;;
11539;SDS011;5826;54.756;9.192;2024-02-26T06:08:48;7.30;;;5.07;;
11539;SDS011;5826;54.756;9.192;2024-02-26T06:11:14;5.40;;;4.30;;
11539;SDS011;5826;54.756;9.192;2024-02-26T06:13:39;7.70;;;5.47;;
11539;SDS011;5826;54.756;9.192;2024-02-26T06:16:05;6.70;;;5.07;;
11539;SDS011;5826;54.756;9.192;2024-02-26T06:18:32;5.93;;;4.63;;
11539;SDS011;5826;54.756;9.192;2024-02-26T06:20:58;5.47;;;4.43;;
11539;SDS011;5826;54.756;9.192;2024-02-26T06:23:24;5.83;;;4.40;;
11539;SDS011;5826;54.756;9.192;2024-02-26T06:25:50;8.80;;;6.13;;
11539;SDS011;5826;54.756;9.192;2024-02-26T06:28:16;6.27;;;5.03;;
11539;SDS011;5826;54.756;9.192;2024-02-26T06:30:41;6.33;;;4.87;;
11539;SDS011;5826;54.756;9.192;2024-02-26T06:33:07;6.43;;;4.73;;
11539;SDS011;5826;54.756;9.192;2024-02-26T06:35:33;7.63;;;5.90;;
11539;SDS011;5826;54.756;9.192;2024-02-26T06:37:58;7.17;;;5.17;;
11539;SDS011;5826;54.756;9.192;2024-02-26T06:40:24;6.90;;;5.40;;
11539;SDS011;5826;54.756;9.192;2024-02-26T06:42:50;6.47;;;5.00;;
11539;SDS011;5826;54.756;9.192;2024-02-26T06:45:16;6.43;;;5.20;;
11539;SDS011;5826;54.756;9.192;2024-02-26T06:47:43;5.83;;;4.67;;
11539;SDS011;5826;54.756;9.192;2024-02-26T06:50:08;6.73;;;5.03;;
11539;SDS011;5826;54.756;9.192;2024-02-26T06:52:36;5.17;;;4.37;;
11539;SDS011;5826;54.756;9.192;2024-02-26T06:55:02;8.67;;;6.83;;
11539;SDS011;5826;54.756;9.192;2024-02-26T06:57:27;5.33;;;4.40;;
11539;SDS011;5826;54.756;9.192;2024-02-26T06:59:53;5.93;;;4.73;;
11539;SDS011;5826;54.756;9.192;2024-02-26T07:02:18;6.30;;;5.00;;
11539;SDS011;5826;54.756;9.192;2024-02-26T07:04:44;8.00;;;6.23;;
11539;SDS011;5826;54.756;9.192;2024-02-26T07:07:10;6.43;;;5.13;;
11539;SDS011;5826;54.756;9.192;2024-02-26T07:09:35;8.53;;;6.20;;
11539;SDS011;5826;54.756;9.192;2024-02-26T07:12:01;8.23;;;6.00;;
11539;SDS011;5826;54.756;9.192;2024-02-26T07:14:27;7.23;;;5.73;;
11539;SDS011;5826;54.756;9.192;2024-02-26T07:16:53;7.17;;;5.53;;
11539;SDS011;5826;54.756;9.192;2024-02-26T07:19:18;8.50;;;6.40;;
11539;SDS011;5826;54.756;9.192;2024-02-26T07:21:44;5.77;;;4.80;;
11539;SDS011;5826;54.756;9.192;2024-02-26T07:24:09;6.23;;;4.97;;
11539;SDS011;5826;54.756;9.192;2024-02-26T07:26:35;8.33;;;6.33;;
11539;SDS011;5826;54.756;9.192;2024-02-26T07:29:00;7.13;;;5.30;;
11539;SDS011;5826;54.756;9.192;2024-02-26T07:31:26;6.80;;;5.40;;
11539;SDS011;5826;54.756;9.192;2024-02-26T07:33:51;6.57;;;5.30;;
11539;SDS011;5826;54.756;9.192;2024-02-26T07:36:17;7.10;;;5.67;;
11539;SDS011;5826;54.756;9.192;2024-02-26T07:38:42;6.97;;;5.47;;
11539;SDS011;5826;54.756;9.192;2024-02-26T07:41:08;9.10;;;6.53;;
11539;SDS011;5826;54.756;9.192;2024-02-26T07:43:34;8.43;;;6.50;;
11539;SDS011;5826;54.756;9.192;2024-02-26T07:45:59;9.07;;;6.77;;
11539;SDS011;5826;54.756;9.192;2024-02-26T07:48:25;7.00;;;5.43;;
11539;SDS011;5826;54.756;9.192;2024-02-26T07:50:50;8.00;;;6.53;;
11539;SDS011;5826;54.756;9.192;2024-02-26T07:53:16;8.97;;;6.60;;
11539;SDS011;5826;54.756;9.192;2024-02-26T07:55:41;8.93;;;7.20;;
11539;SDS011;5826;54.756;9.192;2024-02-26T07:58:07;9.57;;;6.97;;
11539;SDS011;5826;54.756;9.192;2024-02-26T08:00:32;9.60;;;6.93;;
11539;SDS011;5826;54.756;9.192;2024-02-26T08:02:57;7.03;;;5.63;;
11539;SDS011;5826;54.756;9.192;2024-02-26T08:05:23;9.50;;;7.27;;
11539;SDS011;5826;54.756;9.192;2024-02-26T08:07:49;7.60;;;5.80;;
11539;SDS011;5826;54.756;9.192;2024-02-26T08:10:15;8.70;;;6.63;;
11539;SDS011;5826;54.756;9.192;2024-02-26T08:12:41;7.57;;;6.07;;
11539;SDS011;5826;54.756;9.192;2024-02-26T08:15:06;7.93;;;6.37;;
11539;SDS011;5826;54.756;9.192;2024-02-26T08:17:32;10.93;;;7.83;;
11539;SDS011;5826;54.756;9.192;2024-02-26T08:19:58;8.47;;;6.50;;
11539;SDS011;5826;54.756;9.192;2024-02-26T08:22:24;9.30;;;7.10;;
11539;SDS011;5826;54.756;9.192;2024-02-26T08:24:50;7.90;;;6.07;;
11539;SDS011;5826;54.756;9.192;2024-02-26T08:27:15;8.43;;;6.73;;
11539;SDS011;5826;54.756;9.192;2024-02-26T08:29:41;8.83;;;6.63;;
11539;SDS011;5826;54.756;9.192;2024-02-26T08:32:06;8.63;;;6.23;;
11539;SDS011;5826;54.756;9.192;2024-02-26T08:34:32;7.63;;;5.90;;
11539;SDS011;5826;54.756;9.192;2024-02-26T08:36:57;7.17;;;5.30;;
11539;SDS011;5826;54.756;9.192;2024-02-26T08:39:23;8.50;;;6.07;;
11539;SDS011;5826;54.756;9.192;2024-02-26T08:41:48;8.50;;;6.27;;
11539;SDS011;5826;54.756;9.192;2024-02-26T08:44:14;7.63;;;5.80;;
11539;SDS011;5826;54.756;9.192;2024-02-26T08:46:41;7.17;;;5.20;;
11539;SDS011;5826;54.756;9.192;2024-02-26T08:49:06;7.80;;;5.73;;
11539;SDS011;5826;54.756;9.192;2024-02-26T08:51:32;7.00;;;5.37;;
11539;SDS011;5826;54.756;9.192;2024-02-26T08:53:57;7.93;;;5.80;;
11539;SDS011;5826;54.756;9.192;2024-02-26T08:56:22;7.23;;;5.70;;
11539;SDS011;5826;54.756;9.192;2024-02-26T08:58:48;7.73;;;5.87;;
11539;SDS011;5826;54.756;9.192;2024-02-26T09:01:15;6.03;;;5.00;;
11539;SDS011;5826;54.756;9.192;2024-02-26T09:03:41;7.33;;;5.63;;
11539;SDS011;5826;54.756;9.192;2024-02-26T09:06:07;7.57;;;5.23;;
11539;SDS011;5826;54.756;9.192;2024-02-26T09:08:32;6.33;;;5.20;;
11539;SDS011;5826;54.756;9.192;2024-02-26T09:10:58;7.43;;;5.70;;
11539;SDS011;5826;54.756;9.192;2024-02-26T09:13:24;6.13;;;5.00;;
11539;SDS011;5826;54.756;9.192;2024-02-26T09:15:49;6.60;;;5.23;;
11539;SDS011;5826;54.756;9.192;2024-02-26T09:18:14;5.77;;;4.40;;
11539;SDS011;5826;54.756;9.192;2024-02-26T09:20:40;4.90;;;3.87;;
11539;SDS011;5826;54.756;9.192;2024-02-26T09:23:06;6.57;;;4.80;;
11539;SDS011;5826;54.756;9.192;2024-02-26T09:25:31;8.00;;;5.70;;
11539;SDS011;5826;54.756;9.192;2024-02-26T09:27:58;5.87;;;4.57;;
11539;SDS011;5826;54.756;9.192;2024-02-26T09:30:24;5.83;;;4.73;;
11539;SDS011;5826;54.756;9.192;2024-02-26T09:32:49;8.60;;;6.37;;
11539;SDS011;5826;54.756;9.192;2024-02-26T09:35:15;6.03;;;5.17;;
11539;SDS011;5826;54.756;9.192;2024-02-26T09:37:41;6.30;;;5.37;;
11539;SDS011;5826;54.756;9.192;2024-02-26T09:40:07;6.97;;;5.13;;
11539;SDS011;5826;54.756;9.192;2024-02-26T09:42:36;5.27;;;4.77;;
11539;SDS011;5826;54.756;9.192;2024-02-26T09:45:07;6.37;;;5.10;;
11539;SDS011;5826;54.756;9.192;2024-02-26T09:47:37;7.90;;;6.07;;
11539;SDS011;5826;54.756;9.192;2024-02-26T09:50:03;6.30;;;4.90;;
11539;SDS011;5826;54.756;9.192;2024-02-26T09:52:32;6.47;;;5.00;;
11539;SDS011;5826;54.756;9.192;2024-02-26T09:54:59;5.67;;;4.40;;
11539;SDS011;5826;54.756;9.192;2024-02-26T09:57:25;7.20;;;6.03;;
11539;SDS011;5826;54.756;9.192;2024-02-26T09:59:51;8.03;;;6.13;;
11539;SDS011;5826;54.756;9.192;2024-02-26T10:02:19;7.50;;;5.83;;
11539;SDS011;5826;54.756;9.192;2024-02-26T10:04:46;7.73;;;6.00;;
11539;SDS011;5826;54.756;9.192;2024-02-26T10:07:12;8.93;;;6.90;;
11539;SDS011;5826;54.756;9.192;2024-02-26T10:09:41;7.40;;;5.73;;
11539;SDS011;5826;54.756;9.192;2024-02-26T10:12:07;7.83;;;6.13;;
11539;SDS011;5826;54.756;9.192;2024-02-26T10:14:35;6.87;;;5.63;;
11539;SDS011;5826;54.756;9.192;2024-02-26T10:17:01;7.53;;;6.17;;
11539;SDS011;5826;54.756;9.192;2024-02-26T10:19:27;5.87;;;4.93;;
11539;SDS011;5826;54.756;9.192;2024-02-26T10:21:56;6.43;;;5.33;;
11539;SDS011;5826;54.756;9.192;2024-02-26T10:24:22;6.57;;;5.50;;
11539;SDS011;5826;54.756;9.192;2024-02-26T10:26:48;7.90;;;6.13;;
11539;SDS011;5826;54.756;9.192;2024-02-26T10:29:14;6.60;;;5.33;;
11539;SDS011;5826;54.756;9.192;2024-02-26T10:31:42;6.73;;;5.30;;
11539;SDS011;5826;54.756;9.192;2024-02-26T10:34:08;8.33;;;6.47;;
11539;SDS011;5826;54.756;9.192;2024-02-26T10:36:34;8.03;;;6.37;;
11539;SDS011;5826;54.756;9.192;2024-02-26T10:39:01;6.03;;;4.63;;
11539;SDS011;5826;54.756;9.192;2024-02-26T10:41:29;8.23;;;6.27;;
11539;SDS011;5826;54.756;9.192;2024-02-26T10:43:56;8.83;;;7.00;;
11539;SDS011;5826;54.756;9.192;2024-02-26T10:46:22;7.70;;;6.00;;
11539;SDS011;5826;54.756;9.192;2024-02-26T10:48:50;8.30;;;6.43;;
11539;SDS011;5826;54.756;9.192;2024-02-26T10:51:17;6.40;;;5.23;;
11539;SDS011;5826;54.756;9.192;2024-02-26T10:53:50;7.43;;;5.90;;
11539;SDS011;5826;54.756;9.192;2024-02-26T10:56:19;5.97;;;5.00;;
11539;SDS011;5826;54.756;9.192;2024-02-26T10:58:46;6.77;;;5.43;;
11539;SDS011;5826;54.756;9.192;2024-02-26T11:01:12;6.27;;;5.33;;
11539;SDS011;5826;54.756;9.192;2024-02-26T11:03:38;5.67;;;4.93;;
11539;SDS011;5826;54.756;9.192;2024-02-26T11:06:05;5.83;;;4.93;;
11539;SDS011;5826;54.756;9.192;2024-02-26T11:08:31;7.87;;;6.90;;
11539;SDS011;5826;54.756;9.192;2024-02-26T11:10:57;5.67;;;4.57;;
11539;SDS011;5826;54.756;9.192;2024-02-26T11:13:23;5.03;;;4.20;;
11539;SDS011;5826;54.756;9.192;2024-02-26T11:15:54;9.80;;;7.63;;
11539;SDS011;5826;54.756;9.192;2024-02-26T11:18:22;6.10;;;5.27;;
11539;SDS011;5826;54.756;9.192;2024-02-26T11:20:51;5.13;;;4.63;;
11539;SDS011;5826;54.756;9.192;2024-02-26T11:23:21;5.33;;;4.77;;
11539;SDS011;5826;54.756;9.192;2024-02-26T11:25:47;5.70;;;5.10;;
11539;SDS011;5826;54.756;9.192;2024-02-26T11:28:14;7.10;;;6.37;;
11539;SDS011;5826;54.756;9.192;2024-02-26T11:30:43;5.17;;;4.53;;
11539;SDS011;5826;54.756;9.192;2024-02-26T11:33:11;5.20;;;4.70;;
11539;SDS011;5826;54.756;9.192;2024-02-26T11:35:38;6.13;;;5.07;;
11539;SDS011;5826;54.756;9.192;2024-02-26T11:38:04;5.60;;;5.00;;
11539;SDS011;5826;54.756;9.192;2024-02-26T11:40:32;5.73;;;5.10;;
11539;SDS011;5826;54.756;9.192;2024-02-26T11:42:58;5.13;;;4.40;;
11539;SDS011;5826;54.756;9.192;2024-02-26T11:48:11;5.70;;;4.70;;
11539;SDS011;5826;54.756;9.192;2024-02-26T11:50:50;5.33;;;4.83;;
11539;SDS011;5826;54.756;9.192;2024-02-26T11:58:44;5.30;;;4.27;;
11539;SDS011;5826;54.756;9.192;2024-02-26T12:04:05;5.03;;;4.53;;
11539;SDS011;5826;54.756;9.192;2024-02-26T12:06:42;6.10;;;5.50;;
11539;SDS011;5826;54.756;9.192;2024-02-26T12:09:12;5.20;;;4.70;;
11539;SDS011;5826;54.756;9.192;2024-02-26T12:11:38;5.27;;;4.77;;
11539;SDS011;5826;54.756;9.192;2024-02-26T12:14:06;4.67;;;4.27;;
11539;SDS011;5826;54.756;9.192;2024-02-26T12:16:36;5.13;;;4.63;;
11539;SDS011;5826;54.756;9.192;2024-02-26T12:19:08;5.50;;;4.90;;
11539;SDS011;5826;54.756;9.192;2024-02-26T12:21:34;7.20;;;6.50;;
11539;SDS011;5826;54.756;9.192;2024-02-26T12:24:11;7.03;;;6.32;;
11539;SDS011;5826;54.756;9.192;2024-02-26T12:26:38;7.60;;;6.85;;
11539;SDS011;5826;54.756;9.192;2024-02-26T12:29:04;5.78;;;5.18;;
11539;SDS011;5826;54.756;9.192;2024-02-26T12:31:30;6.60;;;5.63;;
11539;SDS011;5826;54.756;9.192;2024-02-26T12:34:01;5.78;;;5.25;;
11539;SDS011;5826;54.756;9.192;2024-02-26T12:36:28;6.00;;;5.40;;
11539;SDS011;5826;54.756;9.192;2024-02-26T12:38:54;4.70;;;4.30;;
11539;SDS011;5826;54.756;9.192;2024-02-26T12:41:20;5.47;;;4.97;;
11539;SDS011;5826;54.756;9.192;2024-02-26T12:43:47;4.72;;;4.30;;
11539;SDS011;5826;54.756;9.192;2024-02-26T12:46:12;4.25;;;3.90;;
11539;SDS011;5826;54.756;9.192;2024-02-26T12:48:41;4.17;;;3.77;;
11539;SDS011;5826;54.756;9.192;2024-02-26T12:51:08;3.75;;;3.45;;
11539;SDS011;5826;54.756;9.192;2024-02-26T12:53:35;3.88;;;3.47;;
11539;SDS011;5826;54.756;9.192;2024-02-26T12:56:00;4.17;;;3.77;;
11539;SDS011;5826;54.756;9.192;2024-02-26T12:58:28;5.05;;;4.65;;
11539;SDS011;5826;54.756;9.192;2024-02-26T13:00:55;4.38;;;3.97;;
11539;SDS011;5826;54.756;9.192;2024-02-26T13:03:22;5.07;;;4.55;;
11539;SDS011;5826;54.756;9.192;2024-02-26T13:05:48;6.05;;;5.50;;
11539;SDS011;5826;54.756;9.192;2024-02-26T13:08:18;4.65;;;4.25;;
11539;SDS011;5826;54.756;9.192;2024-02-26T13:10:45;4.95;;;4.55;;
11539;SDS011;5826;54.756;9.192;2024-02-26T13:13:11;6.53;;;5.93;;
11539;SDS011;5826;54.756;9.192;2024-02-26T13:15:40;6.45;;;5.72;;
11539;SDS011;5826;54.756;9.192;2024-02-26T13:18:12;5.35;;;4.88;;
11539;SDS011;5826;54.756;9.192;2024-02-26T13:20:38;6.03;;;5.47;;
11539;SDS011;5826;54.756;9.192;2024-02-26T13:23:08;5.07;;;4.60;;
11539;SDS011;5826;54.756;9.192;2024-02-26T13:25:36;6.03;;;5.47;;
11539;SDS011;5826;54.756;9.192;2024-02-26T13:28:05;5.75;;;5.10;;
11539;SDS011;5826;54.756;9.192;2024-02-26T13:30:37;5.78;;;5.28;;
11539;SDS011;5826;54.756;9.192;2024-02-26T13:33:09;4.68;;;4.28;;
11539;SDS011;5826;54.756;9.192;2024-02-26T13:35:36;4.30;;;3.90;;
11539;SDS011;5826;54.756;9.192;2024-02-26T13:38:03;3.53;;;3.22;;
11539;SDS011;5826;54.756;9.192;2024-02-26T13:40:30;4.30;;;3.90;;
11539;SDS011;5826;54.756;9.192;2024-02-26T13:42:56;4.03;;;3.63;;
11539;SDS011;5826;54.756;9.192;2024-02-26T13:45:21;3.67;;;3.38;;
11539;SDS011;5826;54.756;9.192;2024-02-26T13:47:47;3.67;;;3.38;;
11539;SDS011;5826;54.756;9.192;2024-02-26T13:50:12;3.13;;;2.90;;
11539;SDS011;5826;54.756;9.192;2024-02-26T13:52:38;2.92;;;2.72;;
11539;SDS011;5826;54.756;9.192;2024-02-26T13:55:03;2.97;;;2.78;;
11539;SDS011;5826;54.756;9.192;2024-02-26T13:57:29;3.03;;;2.72;;
11539;SDS011;5826;54.756;9.192;2024-02-26T13:59:55;3.20;;;2.92;;
11539;SDS011;5826;54.756;9.192;2024-02-26T14:02:21;2.78;;;2.58;;
11539;SDS011;5826;54.756;9.192;2024-02-26T14:04:46;3.20;;;2.90;;
11539;SDS011;5826;54.756;9.192;2024-02-26T14:07:12;2.63;;;2.42;;
11539;SDS011;5826;54.756;9.192;2024-02-26T14:09:38;2.60;;;2.40;;
11539;SDS011;5826;54.756;9.192;2024-02-26T14:12:04;2.45;;;2.25;;
11539;SDS011;5826;54.756;9.192;2024-02-26T14:14:30;2.58;;;2.38;;
11539;SDS011;5826;54.756;9.192;2024-02-26T14:16:57;3.03;;;2.80;;
11539;SDS011;5826;54.756;9.192;2024-02-26T14:19:23;3.30;;;3.00;;
11539;SDS011;5826;54.756;9.192;2024-02-26T14:21:49;3.20;;;2.90;;
11539;SDS011;5826;54.756;9.192;2024-02-26T14:24:14;2.90;;;2.70;;
11539;SDS011;5826;54.756;9.192;2024-02-26T14:26:40;2.42;;;2.22;;
11539;SDS011;5826;54.756;9.192;2024-02-26T14:29:06;2.95;;;2.75;;
11539;SDS011;5826;54.756;9.192;2024-02-26T14:31:32;3.10;;;2.85;;
11539;SDS011;5826;54.756;9.192;2024-02-26T14:33:57;3.65;;;3.25;;
11539;SDS011;5826;54.756;9.192;2024-02-26T14:36:23;2.40;;;2.20;;
11539;SDS011;5826;54.756;9.192;2024-02-26T14:38:48;2.45;;;2.25;;
11539;SDS011;5826;54.756;9.192;2024-02-26T14:41:14;3.13;;;2.83;;
11539;SDS011;5826;54.756;9.192;2024-02-26T14:43:40;2.30;;;2.10;;
11539;SDS011;5826;54.756;9.192;2024-02-26T14:46:05;1.83;;;1.73;;
11539;SDS011;5826;54.756;9.192;2024-02-26T14:48:31;2.25;;;2.05;;
11539;SDS011;5826;54.756;9.192;2024-02-26T14:50:57;2.58;;;2.38;;
11539;SDS011;5826;54.756;9.192;2024-02-26T14:53:23;2.13;;;1.95;;
11539;SDS011;5826;54.756;9.192;2024-02-26T14:55:49;2.40;;;2.20;;
11539;SDS011;5826;54.756;9.192;2024-02-26T14:58:15;2.05;;;1.95;;
11539;SDS011;5826;54.756;9.192;2024-02-26T15:00:41;2.53;;;2.33;;
11539;SDS011;5826;54.756;9.192;2024-02-26T15:03:06;2.90;;;2.70;;
11539;SDS011;5826;54.756;9.192;2024-02-26T15:05:33;3.22;;;2.92;;